Time;durP1;ratioP1;P1;durP2;ratioP2;P2;SDS_P1;SDS_P2;PMS_P1;PMS_P2;Temp;Humidity;BMP_temperature;BMP_pressure;BME280_temperature;BME280_humidity;BME280_pressure;Samples;Min_cycle;Max_cycle;Signal;HPM_P1;HPM_P2
2021/11/18 00:01:18;;;;;;;17.92;3.33;;;27.40;30.00;;;;;;5088799;28;20522;-59
2021/11/18 00:03:46;;;;;;;15.82;3.00;;;27.30;30.20;;;;;;5090965;28;20100;-63
2021/11/18 00:06:15;;;;;;;16.83;2.97;;;27.20;29.90;;;;;;5109102;28;20078;-63
2021/11/18 00:08:41;;;;;;;13.55;2.67;;;27.00;30.60;;;;;;5089746;28;20068;-63
2021/11/18 00:11:09;;;;;;;14.25;3.53;;;27.00;30.70;;;;;;5108700;28;20530;-62
2021/11/18 00:13:40;;;;;;;11.85;3.13;;;26.80;31.80;;;;;;5089432;28;20072;-63
2021/11/18 00:16:06;;;;;;;12.07;4.18;;;26.70;31.10;;;;;;5089380;28;20073;-64
2021/11/18 00:18:36;;;;;;;9.27;3.92;;;26.60;31.70;;;;;;5091825;28;20080;-59
2021/11/18 00:21:25;;;;;;;17.13;3.95;;;26.50;32.20;;;;;;5089370;28;20492;-61
2021/11/18 00:23:54;;;;;;;11.65;4.50;;;26.30;32.70;;;;;;5108628;28;20081;-59
2021/11/18 00:26:22;;;;;;;15.90;4.35;;;26.20;33.10;;;;;;5089334;28;20119;-63
2021/11/18 00:28:49;;;;;;;19.85;3.95;;;26.00;33.10;;;;;;5090880;28;20070;-60
2021/11/18 00:31:19;;;;;;;20.88;4.38;;;25.90;33.20;;;;;;5086134;28;20088;-56
2021/11/18 00:33:46;;;;;;;17.85;3.40;;;25.80;33.00;;;;;;5089677;28;20076;-60
2021/11/18 00:36:14;;;;;;;28.20;4.47;;;25.60;33.30;;;;;;5090380;28;20444;-63
2021/11/18 00:38:42;;;;;;;30.10;3.63;;;25.50;33.70;;;;;;5059049;28;20163;-60
2021/11/18 00:41:09;;;;;;;29.90;4.70;;;25.50;33.90;;;;;;5089486;28;20162;-62
2021/11/18 00:43:35;;;;;;;26.88;3.65;;;25.40;34.30;;;;;;5091491;28;20079;-64
2021/11/18 00:46:03;;;;;;;30.33;5.00;;;25.30;34.30;;;;;;5107382;28;20080;-60
2021/11/18 00:48:30;;;;;;;28.77;4.57;;;25.20;34.20;;;;;;5090538;28;20179;-62
2021/11/18 00:51:03;;;;;;;34.33;4.45;;;25.10;34.60;;;;;;5089057;28;20197;-60
2021/11/18 00:53:30;;;;;;;24.13;4.15;;;25.00;34.70;;;;;;5089620;28;20126;-64
2021/11/18 00:55:57;;;;;;;32.90;4.03;;;24.90;35.00;;;;;;5090576;28;20123;-59
2021/11/18 00:58:25;;;;;;;32.58;5.10;;;24.70;35.50;;;;;;5089065;28;20111;-59
2021/11/18 01:00:51;;;;;;;49.33;6.53;;;24.60;35.60;;;;;;5097749;28;20097;-60
2021/11/18 01:03:20;;;;;;;42.78;6.03;;;24.50;36.40;;;;;;5094570;28;20080;-61
2021/11/18 01:05:49;;;;;;;31.75;5.30;;;24.30;36.80;;;;;;5111829;28;20107;-64
2021/11/18 01:08:16;;;;;;;39.15;5.10;;;24.30;37.80;;;;;;5109789;28;20113;-59
2021/11/18 01:11:05;;;;;;;31.73;4.97;;;24.10;38.50;;;;;;5099325;28;20110;-61
2021/11/18 01:13:34;;;;;;;46.92;5.63;;;24.00;38.80;;;;;;5090882;28;20080;-63
2021/11/18 01:16:03;;;;;;;39.13;5.72;;;23.90;39.30;;;;;;5087263;28;20541;-64
2021/11/18 01:18:31;;;;;;;39.72;6.22;;;23.90;39.20;;;;;;5090116;28;20453;-69
2021/11/18 01:20:58;;;;;;;38.38;6.43;;;23.80;39.40;;;;;;5093576;28;20149;-63
2021/11/18 01:23:29;;;;;;;38.72;6.35;;;23.70;39.80;;;;;;5110152;28;20659;-64
2021/11/18 01:25:56;;;;;;;39.00;6.05;;;23.60;40.30;;;;;;5094602;28;20726;-65
2021/11/18 01:28:23;;;;;;;37.65;5.68;;;23.50;40.40;;;;;;5112739;28;20084;-62
2021/11/18 01:30:52;;;;;;;34.30;6.13;;;23.40;40.60;;;;;;5093359;28;20064;-61
2021/11/18 01:33:18;;;;;;;42.25;6.15;;;23.30;40.90;;;;;;5075935;28;20064;-64
2021/11/18 01:35:47;;;;;;;29.40;6.07;;;23.30;41.20;;;;;;5094381;28;20072;-65
2021/11/18 01:38:14;;;;;;;44.78;7.03;;;23.20;41.50;;;;;;5112890;28;20068;-64
2021/11/18 01:40:45;;;;;;;38.25;6.63;;;23.10;41.10;;;;;;5092866;28;20108;-63
2021/11/18 01:43:12;;;;;;;48.42;6.65;;;23.10;41.00;;;;;;5090560;28;20072;-67
2021/11/18 01:45:40;;;;;;;40.08;6.05;;;23.00;41.40;;;;;;5093585;28;20072;-60
2021/11/18 01:48:07;;;;;;;38.38;5.60;;;23.00;42.10;;;;;;5093995;28;20619;-63
2021/11/18 01:50:37;;;;;;;49.33;6.10;;;22.90;42.10;;;;;;5111239;28;21425;-61
2021/11/18 01:53:06;;;;;;;39.30;5.95;;;22.80;41.90;;;;;;5110287;28;20719;-62
2021/11/18 01:55:34;;;;;;;35.53;6.20;;;22.70;41.70;;;;;;5074157;28;20713;-64
2021/11/18 01:58:00;;;;;;;38.92;6.47;;;22.70;41.90;;;;;;5111266;28;20104;-62
2021/11/18 02:00:34;;;;;;;37.65;6.60;;;22.70;42.10;;;;;;5089943;28;20437;-60
2021/11/18 02:03:02;;;;;;;36.15;6.07;;;22.60;42.50;;;;;;5071146;28;20076;-62
2021/11/18 02:05:33;;;;;;;44.15;6.72;;;22.40;42.60;;;;;;5094103;28;20080;-61
2021/11/18 02:08:00;;;;;;;62.17;6.78;;;22.50;43.50;;;;;;5093986;28;20459;-60
2021/11/18 02:10:37;;;;;;;43.58;7.35;;;22.40;43.40;;;;;;5090472;28;20092;-60
2021/11/18 02:13:09;;;;;;;49.60;7.50;;;22.40;43.90;;;;;;5106632;28;20126;-60
2021/11/18 02:15:46;;;;;;;40.13;6.70;;;22.40;44.00;;;;;;5071133;28;20079;-60
2021/11/18 02:18:19;;;;;;;58.30;6.70;;;22.30;44.00;;;;;;5105606;28;20072;-63
2021/11/18 02:20:48;;;;;;;52.72;7.10;;;22.20;44.50;;;;;;5090843;28;20076;-61
2021/11/18 02:23:22;;;;;;;56.58;8.00;;;22.20;44.30;;;;;;5089946;28;20076;-63
2021/11/18 02:25:51;;;;;;;41.40;6.97;;;22.10;44.90;;;;;;5111606;28;20116;-59
2021/11/18 02:28:19;;;;;;;53.60;8.75;;;22.10;44.90;;;;;;5089376;28;20102;-60
2021/11/18 02:30:48;;;;;;;54.92;11.30;;;22.10;44.90;;;;;;5093362;28;20084;-59
2021/11/18 02:33:17;;;;;;;46.60;12.48;;;22.00;45.30;;;;;;5092389;28;20171;-63
2021/11/18 02:35:47;;;;;;;58.40;11.10;;;21.90;45.40;;;;;;5093885;28;20089;-59
2021/11/18 02:38:15;;;;;;;58.85;11.48;;;21.90;45.30;;;;;;5092251;28;20625;-58
2021/11/18 02:40:42;;;;;;;47.50;9.45;;;21.90;45.80;;;;;;5073873;28;20514;-58
2021/11/18 02:43:17;;;;;;;54.75;9.38;;;21.90;45.40;;;;;;5086623;28;20432;-59
2021/11/18 02:45:47;;;;;;;62.08;10.15;;;21.80;45.90;;;;;;5109124;28;20437;-58
2021/11/18 02:48:15;;;;;;;64.32;9.68;;;21.70;46.10;;;;;;5090789;28;20079;-60
2021/11/18 02:50:45;;;;;;;50.20;8.85;;;21.70;46.10;;;;;;5090350;28;20096;-59
2021/11/18 02:53:12;;;;;;;67.32;10.10;;;21.60;45.90;;;;;;5075911;28;20117;-58
2021/11/18 02:55:42;;;;;;;55.92;10.07;;;21.60;45.90;;;;;;5088002;28;20064;-59
2021/11/18 02:58:08;;;;;;;65.45;10.82;;;21.60;46.50;;;;;;5111103;28;20140;-61
2021/11/18 03:00:58;;;;;;;68.72;11.05;;;21.50;46.40;;;;;;5074526;28;20068;-62
2021/11/18 03:03:25;;;;;;;57.63;10.68;;;21.50;47.00;;;;;;5110173;28;20092;-61
2021/11/18 03:05:52;;;;;;;50.65;11.63;;;21.50;47.40;;;;;;5109586;28;20138;-62
2021/11/18 03:08:21;;;;;;;51.65;10.80;;;21.40;47.40;;;;;;5091257;28;20171;-64
2021/11/18 03:10:48;;;;;;;61.17;12.75;;;21.40;47.30;;;;;;5076002;28;20068;-68
2021/11/18 03:13:16;;;;;;;67.88;11.73;;;21.20;47.50;;;;;;5109331;28;20175;-62
2021/11/18 03:15:44;;;;;;;78.57;13.68;;;21.30;47.60;;;;;;5090720;28;20491;-61
2021/11/18 03:18:10;;;;;;;58.20;13.65;;;21.30;47.50;;;;;;5089917;28;20206;-63
2021/11/18 03:20:36;;;;;;;66.93;14.25;;;21.20;47.70;;;;;;5092934;28;20064;-62
2021/11/18 03:23:03;;;;;;;81.20;14.13;;;21.20;47.80;;;;;;5085565;28;20529;-62
2021/11/18 03:25:33;;;;;;;56.90;13.75;;;21.10;48.40;;;;;;5091028;28;20110;-60
2021/11/18 03:28:00;;;;;;;66.55;13.75;;;21.10;49.40;;;;;;5088929;28;20076;-62
2021/11/18 03:30:32;;;;;;;64.03;14.40;;;21.00;49.00;;;;;;5088958;28;20096;-61
2021/11/18 03:33:02;;;;;;;73.78;17.30;;;21.00;49.00;;;;;;5082116;28;20823;-66
2021/11/18 03:35:29;;;;;;;88.45;18.25;;;21.00;48.70;;;;;;5103989;28;20084;-60
2021/11/18 03:37:56;;;;;;;65.72;16.10;;;20.90;49.10;;;;;;5092669;28;20433;-60
2021/11/18 03:40:24;;;;;;;69.80;15.05;;;20.90;49.30;;;;;;5091355;28;20415;-60
2021/11/18 03:42:52;;;;;;;90.85;19.17;;;20.90;49.20;;;;;;5091644;28;20098;-61
2021/11/18 03:45:20;;;;;;;86.78;18.95;;;20.90;49.10;;;;;;5090044;28;20175;-64
2021/11/18 03:47:46;;;;;;;88.28;21.20;;;20.80;48.80;;;;;;5089555;28;20108;-62
2021/11/18 03:50:14;;;;;;;92.40;20.33;;;20.80;48.80;;;;;;5091596;28;20094;-62
2021/11/18 03:52:40;;;;;;;89.30;20.52;;;20.90;48.90;;;;;;5090099;28;20145;-59
2021/11/18 03:55:12;;;;;;;105.13;24.48;;;20.80;49.40;;;;;;5107799;28;20098;-58
2021/11/18 03:57:38;;;;;;;87.70;24.38;;;20.80;48.90;;;;;;5109335;28;20100;-59
2021/11/18 04:00:10;;;;;;;92.50;25.25;;;20.80;49.30;;;;;;5090121;28;20075;-61
2021/11/18 04:02:37;;;;;;;92.60;24.83;;;20.80;49.50;;;;;;5092062;28;20068;-61
2021/11/18 04:05:04;;;;;;;100.18;24.45;;;20.70;49.20;;;;;;5106480;28;20459;-59
2021/11/18 04:07:38;;;;;;;84.45;25.70;;;20.70;49.30;;;;;;5087735;28;20518;-65
2021/11/18 04:10:10;;;;;;;102.05;27.92;;;20.60;49.40;;;;;;5100368;28;20076;-63
2021/11/18 04:12:39;;;;;;;109.20;28.73;;;20.60;49.90;;;;;;5107296;28;20080;-62
2021/11/18 04:15:07;;;;;;;115.68;27.95;;;20.60;49.80;;;;;;5087438;28;20076;-59
2021/11/18 04:17:34;;;;;;;95.47;27.02;;;20.60;50.10;;;;;;5106967;28;20106;-64
2021/11/18 04:20:01;;;;;;;92.15;25.75;;;20.60;50.20;;;;;;5089666;28;20097;-60
2021/11/18 04:22:27;;;;;;;108.75;27.20;;;20.50;50.20;;;;;;5091168;28;20072;-64
2021/11/18 04:24:54;;;;;;;100.75;27.13;;;20.40;51.10;;;;;;5109936;28;20088;-60
2021/11/18 04:27:20;;;;;;;81.93;25.52;;;20.30;51.70;;;;;;5090063;28;20076;-65
2021/11/18 04:29:46;;;;;;;;;;;20.30;52.20;;;;;;5090052;28;20070;-65
2021/11/18 04:32:17;;;;;;;90.70;27.35;;;20.30;52.30;;;;;;5091230;28;19972;-62
2021/11/18 04:34:44;;;;;;;106.97;29.33;;;20.20;52.10;;;;;;5091992;28;20072;-65
2021/11/18 04:37:11;;;;;;;103.80;29.52;;;20.30;51.90;;;;;;5111984;28;20118;-62
2021/11/18 04:39:38;;;;;;;101.75;27.45;;;20.20;52.00;;;;;;5077495;28;20167;-62
2021/11/18 04:42:06;;;;;;;89.97;28.02;;;20.20;52.20;;;;;;5094473;28;20553;-60
2021/11/18 04:44:35;;;;;;;95.93;28.40;;;20.20;52.00;;;;;;5095448;28;20579;-62
2021/11/18 04:47:09;;;;;;;109.53;28.00;;;20.20;52.10;;;;;;5112090;28;20534;-64
2021/11/18 04:49:37;;;;;;;100.95;27.65;;;20.00;52.40;;;;;;5109621;28;20495;-64
2021/11/18 04:52:04;;;;;;;88.60;27.10;;;20.00;52.60;;;;;;5094860;28;20142;-67
2021/11/18 04:54:31;;;;;;;108.13;30.50;;;20.00;52.60;;;;;;5108581;28;20108;-61
2021/11/18 04:56:58;;;;;;;99.38;30.13;;;20.00;52.70;;;;;;5092104;28;20568;-60
2021/11/18 04:59:24;;;;;;;89.28;27.75;;;20.00;52.80;;;;;;5094776;28;20195;-59
2021/11/18 05:01:51;;;;;;;132.45;29.20;;;20.00;52.80;;;;;;5076883;28;20077;-61
2021/11/18 05:04:17;;;;;;;;;;;19.90;53.00;;;;;;5113760;28;20167;-57
2021/11/18 05:06:44;;;;;;;178.10;31.08;;;19.90;53.30;;;;;;5112186;28;20007;-58
2021/11/18 05:09:11;;;;;;;205.15;32.63;;;19.90;53.50;;;;;;5092748;28;20133;-58
2021/11/18 05:11:39;;;;;;;111.95;27.90;;;19.90;54.60;;;;;;5094031;28;20099;-57
2021/11/18 05:14:07;;;;;;;124.72;26.42;;;19.80;54.40;;;;;;5093034;28;20076;-55
2021/11/18 05:16:33;;;;;;;175.75;32.00;;;19.80;54.20;;;;;;5092654;28;20068;-64
2021/11/18 05:19:00;;;;;;;127.63;27.52;;;19.70;54.30;;;;;;5112354;28;20469;-63
2021/11/18 05:21:29;;;;;;;123.22;26.85;;;19.70;54.50;;;;;;5093056;28;20097;-63
2021/11/18 05:24:00;;;;;;;132.45;25.55;;;19.70;54.70;;;;;;5092474;28;20124;-60
2021/11/18 05:26:27;;;;;;;112.57;25.65;;;19.60;54.50;;;;;;5092437;28;20625;-61
2021/11/18 05:28:54;;;;;;;104.65;24.42;;;19.60;54.50;;;;;;5094138;28;20080;-63
2021/11/18 05:31:22;;;;;;;111.82;24.63;;;19.60;54.40;;;;;;5094907;28;20673;-58
2021/11/18 05:33:50;;;;;;;134.02;27.25;;;19.60;54.60;;;;;;5092830;28;20087;-60
2021/11/18 05:36:18;;;;;;;133.55;26.60;;;19.60;54.80;;;;;;5095284;28;20074;-58
2021/11/18 05:38:46;;;;;;;131.77;30.85;;;19.60;55.30;;;;;;5093781;28;20072;-60
2021/11/18 05:41:14;;;;;;;111.10;29.30;;;19.50;55.60;;;;;;5111075;28;20068;-60
2021/11/18 05:43:42;;;;;;;129.20;28.50;;;19.50;56.30;;;;;;5077083;28;20181;-61
2021/11/18 05:46:14;;;;;;;120.32;27.10;;;19.40;55.80;;;;;;5110639;28;20087;-59
2021/11/18 05:48:41;;;;;;;122.63;27.63;;;19.40;55.80;;;;;;5111605;28;20072;-60
2021/11/18 05:51:11;;;;;;;159.77;32.63;;;19.30;55.90;;;;;;5110488;28;20453;-60
2021/11/18 05:53:41;;;;;;;159.02;31.55;;;19.30;55.90;;;;;;5093529;28;20096;-59
2021/11/18 05:56:11;;;;;;;123.38;32.78;;;19.20;55.90;;;;;;5093448;28;20433;-63
2021/11/18 05:58:38;;;;;;;148.38;32.00;;;19.30;55.60;;;;;;5061556;28;20079;-60
2021/11/18 06:01:06;;;;;;;124.28;32.83;;;19.20;55.70;;;;;;5034002;28;20516;-62
2021/11/18 06:03:33;;;;;;;143.55;33.88;;;19.20;55.60;;;;;;5049552;28;20079;-60
2021/11/18 06:06:00;;;;;;;130.50;33.83;;;19.20;55.50;;;;;;5049684;28;20431;-62
2021/11/18 06:08:26;;;;;;;124.50;33.78;;;19.20;55.50;;;;;;5032915;28;20109;-60
2021/11/18 06:10:53;;;;;;;120.65;30.90;;;19.20;55.50;;;;;;5046345;28;20177;-59
2021/11/18 06:13:20;;;;;;;115.80;29.35;;;19.10;55.40;;;;;;5042602;28;20215;-61
2021/11/18 06:15:47;;;;;;;102.18;26.92;;;19.10;55.10;;;;;;5040308;28;20070;-64
2021/11/18 06:18:14;;;;;;;103.78;28.83;;;19.00;54.90;;;;;;5050244;28;20431;-62
2021/11/18 06:20:41;;;;;;;105.07;25.63;;;19.00;55.20;;;;;;5058167;28;20503;-59
2021/11/18 06:23:09;;;;;;;108.57;28.45;;;19.00;55.20;;;;;;5034026;28;20113;-64
2021/11/18 06:25:37;;;;;;;94.35;24.13;;;18.90;54.90;;;;;;5049484;28;20070;-62
2021/11/18 06:28:06;;;;;;;88.22;22.75;;;18.90;54.60;;;;;;5056733;28;20077;-64
2021/11/18 06:30:37;;;;;;;90.65;21.10;;;18.90;54.40;;;;;;5051028;28;20617;-61
2021/11/18 06:33:04;;;;;;;91.10;21.35;;;18.90;54.50;;;;;;5048973;28;20090;-60
2021/11/18 06:35:30;;;;;;;84.18;20.08;;;18.90;54.90;;;;;;5051779;28;20706;-59
2021/11/18 06:37:57;;;;;;;86.85;18.00;;;18.90;54.50;;;;;;5038767;28;20135;-60
2021/11/18 06:40:24;;;;;;;80.43;19.92;;;18.90;54.40;;;;;;5055368;28;20097;-65
2021/11/18 06:42:51;;;;;;;77.90;19.90;;;18.90;54.20;;;;;;5052218;28;20085;-61
2021/11/18 06:45:24;;;;;;;80.47;18.88;;;18.80;54.70;;;;;;5051868;28;20105;-65
2021/11/18 06:47:50;;;;;;;75.72;18.10;;;18.80;55.30;;;;;;5052580;28;20085;-64
2021/11/18 06:50:17;;;;;;;97.00;20.40;;;18.70;55.60;;;;;;5052592;28;20093;-60
2021/11/18 06:52:44;;;;;;;78.65;19.38;;;18.60;55.10;;;;;;5051256;28;20139;-63
2021/11/18 06:55:11;;;;;;;74.25;17.45;;;18.60;55.30;;;;;;5054029;28;20551;-64
2021/11/18 06:57:38;;;;;;;79.80;17.60;;;18.60;55.20;;;;;;5082294;28;20116;-63
2021/11/18 07:00:07;;;;;;;84.05;17.98;;;18.60;55.40;;;;;;5084400;28;20076;-64
2021/11/18 07:02:34;;;;;;;81.38;18.73;;;18.60;55.50;;;;;;5086482;28;20087;-62
2021/11/18 07:05:00;;;;;;;80.05;16.15;;;18.60;55.40;;;;;;5086109;28;20118;-64
2021/11/18 07:07:27;;;;;;;60.45;15.85;;;18.60;55.60;;;;;;5071629;28;20076;-61
2021/11/18 07:09:53;;;;;;;69.40;13.93;;;18.60;55.70;;;;;;5087234;28;20186;-61
2021/11/18 07:12:21;;;;;;;;;;;18.60;55.30;;;;;;5082715;28;20113;-62
2021/11/18 07:14:49;;;;;;;65.53;14.00;;;18.50;54.90;;;;;;5085965;28;19964;-61
2021/11/18 07:17:16;;;;;;;49.95;12.15;;;18.50;55.10;;;;;;5085211;28;20072;-59
2021/11/18 07:19:42;;;;;;;46.55;12.00;;;18.50;55.10;;;;;;5082996;28;20491;-59
2021/11/18 07:22:10;;;;;;;63.38;12.15;;;18.40;54.90;;;;;;5086562;28;20217;-59
2021/11/18 07:24:36;;;;;;;49.97;11.52;;;18.40;54.20;;;;;;5084829;28;20095;-59
2021/11/18 07:27:03;;;;;;;57.72;13.68;;;18.40;54.50;;;;;;5084976;28;20082;-63
2021/11/18 07:29:31;;;;;;;70.07;15.30;;;18.30;55.20;;;;;;5103084;28;20541;-57
2021/11/18 07:31:57;;;;;;;61.95;14.75;;;18.30;55.70;;;;;;5069718;28;20449;-60
2021/11/18 07:34:24;;;;;;;64.28;14.00;;;18.30;56.30;;;;;;5085071;28;20128;-57
2021/11/18 07:36:51;;;;;;;61.10;13.50;;;18.20;56.30;;;;;;5085003;28;20091;-60
2021/11/18 07:39:18;;;;;;;64.63;12.25;;;18.10;56.80;;;;;;5068980;28;20073;-59
2021/11/18 07:41:46;;;;;;;46.75;12.48;;;18.20;56.70;;;;;;5086212;28;20083;-57
2021/11/18 07:44:13;;;;;;;51.53;11.38;;;18.10;56.70;;;;;;5084996;28;20105;-63
2021/11/18 07:46:40;;;;;;;50.00;11.50;;;18.20;57.00;;;;;;5102196;28;20065;-59
2021/11/18 07:49:08;;;;;;;58.40;12.05;;;18.10;57.00;;;;;;5086422;28;20174;-59
2021/11/18 07:51:36;;;;;;;43.40;11.70;;;18.00;57.00;;;;;;5103961;28;20187;-57
2021/11/18 07:54:03;;;;;;;56.95;11.73;;;17.90;56.90;;;;;;5083367;28;20068;-60
2021/11/18 07:56:30;;;;;;;52.53;11.20;;;18.00;56.90;;;;;;5085860;28;20150;-59
2021/11/18 07:58:57;;;;;;;58.88;13.20;;;18.00;57.00;;;;;;5103840;28;20071;-58
2021/11/18 08:01:24;;;;;;;47.53;12.23;;;18.00;57.20;;;;;;5083540;28;20150;-64
2021/11/18 08:03:51;;;;;;;58.30;13.77;;;17.90;57.50;;;;;;5085260;28;20103;-61
2021/11/18 08:06:21;;;;;;;51.33;12.90;;;17.90;57.50;;;;;;5087038;28;20079;-63
2021/11/18 08:08:48;;;;;;;65.13;13.30;;;17.90;57.70;;;;;;5084945;28;20072;-58
2021/11/18 08:11:18;;;;;;;73.97;16.42;;;17.90;57.90;;;;;;5073171;28;20108;-63
2021/11/18 08:13:46;;;;;;;69.57;15.75;;;17.80;57.60;;;;;;5086659;28;20076;-59
2021/11/18 08:16:13;;;;;;;59.30;16.65;;;17.80;58.20;;;;;;5090624;28;20724;-59
2021/11/18 08:18:42;;;;;;;82.35;16.50;;;17.70;58.40;;;;;;5085346;28;20168;-60
2021/11/18 08:21:09;;;;;;;53.38;15.70;;;17.70;58.50;;;;;;5106327;28;20170;-61
2021/11/18 08:23:35;;;;;;;57.63;15.30;;;17.70;58.80;;;;;;5089836;28;20079;-62
2021/11/18 08:26:03;;;;;;;;;;;17.70;58.60;;;;;;5089763;28;20621;-58
2021/11/18 08:28:30;;;;;;;61.92;14.10;;;17.60;58.60;;;;;;5087993;28;20003;-62
2021/11/18 08:30:57;;;;;;;60.83;13.57;;;17.60;58.60;;;;;;5072608;28;20073;-57
2021/11/18 08:33:23;;;;;;;52.60;11.60;;;17.50;58.50;;;;;;5089351;28;20123;-60
2021/11/18 08:35:49;;;;;;;;;;;17.40;58.40;;;;;;5105134;28;20433;-57
2021/11/18 08:38:19;;;;;;;42.03;10.68;;;17.40;58.70;;;;;;5107143;28;19956;-60
2021/11/18 08:40:56;;;;;;;52.60;10.90;;;17.40;58.60;;;;;;5109247;28;20075;-62
2021/11/18 08:43:24;;;;;;;42.80;10.75;;;17.40;58.60;;;;;;5105961;28;20087;-60
2021/11/18 08:45:50;;;;;;;39.78;11.45;;;17.40;58.60;;;;;;5106733;28;20068;-57
2021/11/18 08:48:17;;;;;;;46.75;13.13;;;17.40;58.90;;;;;;5089449;28;20080;-57
2021/11/18 08:50:46;;;;;;;58.17;14.20;;;17.40;58.90;;;;;;5071473;28;20093;-60
2021/11/18 08:53:15;;;;;;;44.63;10.88;;;17.40;58.70;;;;;;5089820;28;20115;-58
2021/11/18 08:55:43;;;;;;;32.40;9.73;;;17.20;58.70;;;;;;5086914;28;20076;-60
2021/11/18 08:58:13;;;;;;;34.08;9.55;;;17.30;59.00;;;;;;5087093;28;20540;-59
2021/11/18 09:00:51;;;;;;;36.00;10.82;;;17.30;59.10;;;;;;5106253;28;20166;-59
2021/11/18 09:03:20;;;;;;;54.90;10.30;;;17.20;59.10;;;;;;5086111;28;20076;-60
2021/11/18 09:05:48;;;;;;;47.22;9.90;;;17.20;59.40;;;;;;5104774;28;20605;-59
2021/11/18 09:08:14;;;;;;;53.45;10.68;;;17.10;59.30;;;;;;5072370;28;20072;-61
2021/11/18 09:10:40;;;;;;;;;;;17.10;59.60;;;;;;5088834;28;20072;-60
2021/11/18 09:13:08;;;;;;;45.05;10.73;;;17.20;59.80;;;;;;5068262;28;19984;-58
2021/11/18 09:15:35;;;;;;;57.00;11.50;;;17.20;60.10;;;;;;5087280;28;20447;-57
2021/11/18 09:18:02;;;;;;;52.15;11.35;;;17.20;60.20;;;;;;5086498;28;20514;-60
2021/11/18 09:20:30;;;;;;;59.58;12.48;;;17.00;60.70;;;;;;5085414;28;20096;-62
2021/11/18 09:22:59;;;;;;;48.28;12.00;;;17.00;60.90;;;;;;5070821;28;20100;-58
2021/11/18 09:25:33;;;;;;;44.75;11.93;;;17.00;60.70;;;;;;5083962;28;20532;-63
2021/11/18 09:27:59;;;;;;;58.67;13.15;;;17.00;60.70;;;;;;5086682;28;20087;-58
2021/11/18 09:30:33;;;;;;;55.28;12.85;;;17.00;61.00;;;;;;5068940;28;20068;-59
2021/11/18 09:33:00;;;;;;;68.18;13.23;;;17.00;61.10;;;;;;5087861;28;20584;-61
2021/11/18 09:35:39;;;;;;;57.42;12.93;;;16.90;61.20;;;;;;5067622;28;20081;-61
2021/11/18 09:38:06;;;;;;;46.67;13.23;;;16.90;61.20;;;;;;5070975;28;20106;-57
2021/11/18 09:40:46;;;;;;;63.50;13.02;;;16.80;61.20;;;;;;5070952;28;20064;-58
2021/11/18 09:43:46;;;;;;;66.57;15.48;;;16.90;61.90;;;;;;5084980;28;20087;-58
2021/11/18 09:46:55;;;;;;;61.28;14.90;;;16.90;62.40;;;;;;5086203;28;20072;-61
2021/11/18 09:50:02;;;;;;;80.00;15.85;;;16.80;62.60;;;;;;5066774;28;20080;-59
2021/11/18 09:52:53;;;;;;;66.55;17.05;;;16.80;62.90;;;;;;5085319;28;20099;-60
2021/11/18 09:55:37;;;;;;;68.72;17.33;;;16.80;62.80;;;;;;5072666;28;20562;-59
2021/11/18 09:58:26;;;;;;;77.50;17.88;;;16.70;63.20;;;;;;5026605;28;2257030;-62
2021/11/18 10:01:26;;;;;;;77.38;19.90;;;16.70;63.70;;;;;;5094569;28;20096;-60
2021/11/18 10:04:08;;;;;;;77.32;20.73;;;16.70;63.60;;;;;;5105250;28;20076;-62
2021/11/18 10:06:40;;;;;;;79.00;19.73;;;16.70;63.40;;;;;;5087804;28;20194;-58
2021/11/18 10:09:21;;;;;;;75.65;20.65;;;16.60;63.30;;;;;;5085984;28;20442;-57
2021/11/18 10:11:53;;;;;;;75.50;21.42;;;16.60;63.50;;;;;;5104420;28;20541;-59
2021/11/18 10:14:35;;;;;;;88.25;21.55;;;16.50;63.80;;;;;;5105457;28;20075;-59
2021/11/18 10:17:21;;;;;;;72.90;23.35;;;16.50;64.50;;;;;;5085448;28;20107;-57
2021/11/18 10:20:02;;;;;;;89.45;22.63;;;16.50;64.30;;;;;;5082214;28;20072;-61
2021/11/18 10:22:36;;;;;;;77.45;23.10;;;16.50;63.90;;;;;;5086840;28;20080;-59
2021/11/18 10:25:04;;;;;;;90.53;24.85;;;16.50;64.00;;;;;;5071447;28;20075;-58
2021/11/18 10:27:38;;;;;;;88.80;24.95;;;16.50;63.80;;;;;;5084789;28;20489;-57
2021/11/18 10:30:08;;;;;;;101.53;25.08;;;16.50;64.80;;;;;;5084803;28;20080;-57
2021/11/18 10:33:23;;;;;;;87.05;24.60;;;16.40;64.80;;;;;;5104027;28;20102;-57
2021/11/18 10:36:13;;;;;;;90.28;23.58;;;16.40;64.80;;;;;;5063035;28;20077;-56
2021/11/18 10:39:08;;;;;;;88.60;23.35;;;16.40;65.40;;;;;;5087469;28;20473;-59
2021/11/18 10:41:35;;;;;;;76.75;23.70;;;16.40;65.90;;;;;;5086321;28;20072;-61
2021/11/18 10:44:15;;;;;;;74.57;21.75;;;16.30;66.10;;;;;;5084964;28;20429;-58
2021/11/18 10:46:56;;;;;;;83.15;22.15;;;16.30;65.90;;;;;;5084275;28;20157;-62
2021/11/18 10:49:40;;;;;;;77.43;21.98;;;16.30;65.90;;;;;;5084660;28;20076;-62
2021/11/18 10:52:23;;;;;;;80.07;24.77;;;16.40;65.80;;;;;;5084589;28;20541;-58
2021/11/18 10:54:59;;;;;;;83.65;26.20;;;16.30;65.30;;;;;;5088029;28;20076;-57
2021/11/18 10:57:28;;;;;;;86.88;25.27;;;16.40;65.30;;;;;;5087489;28;20167;-59
2021/11/18 11:00:11;;;;;;;87.18;24.65;;;16.30;65.20;;;;;;5105055;28;20060;-58
2021/11/18 11:02:39;;;;;;;87.20;24.92;;;16.30;65.90;;;;;;5085808;28;20457;-60
2021/11/18 11:05:33;;;;;;;102.95;24.35;;;16.30;65.90;;;;;;5065994;28;20080;-58
2021/11/18 11:08:02;;;;;;;92.10;24.15;;;16.30;67.00;;;;;;5085864;28;21399;-59
2021/11/18 11:10:37;;;;;;;96.57;26.15;;;16.20;66.80;;;;;;5083168;28;20072;-61
2021/11/18 11:13:06;;;;;;;77.88;23.77;;;16.20;67.10;;;;;;5069832;28;20087;-58
2021/11/18 11:15:54;;;;;;;85.20;24.48;;;16.20;67.30;;;;;;5097666;28;20149;-57
2021/11/18 11:18:49;;;;;;;;;;;16.10;67.60;;;;;;5084557;28;20542;-62
2021/11/18 11:21:32;;;;;;;76.75;23.77;;;16.10;67.90;;;;;;4991593;28;19958;-59
2021/11/18 11:24:16;;;;;;;93.90;26.27;;;16.10;68.20;;;;;;4993672;28;20189;-59
2021/11/18 11:27:11;;;;;;;90.68;24.67;;;15.90;67.70;;;;;;5006949;28;20074;-58
2021/11/18 11:29:52;;;;;;;80.20;25.25;;;16.00;67.80;;;;;;4990628;28;20443;-62
2021/11/18 11:32:41;;;;;;;75.03;23.40;;;16.10;68.20;;;;;;4991395;28;20631;-58
2021/11/18 11:35:39;;;;;;;84.53;23.83;;;16.20;68.10;;;;;;4990683;28;20102;-62
2021/11/18 11:38:42;;;;;;;84.35;23.15;;;16.00;68.70;;;;;;5006688;28;20086;-60
2021/11/18 11:41:35;;;;;;;90.35;24.25;;;16.00;68.40;;;;;;4991733;28;20182;-59
2021/11/18 11:44:25;;;;;;;91.22;23.83;;;16.00;68.80;;;;;;5006784;28;20086;-60
2021/11/18 11:47:02;;;;;;;93.95;26.27;;;15.90;69.70;;;;;;4989930;28;20074;-59
2021/11/18 11:49:34;;;;;;;;;;;15.80;70.40;;;;;;4992016;28;20082;-60
2021/11/18 11:52:33;;;;;;;91.75;26.23;;;15.80;70.70;;;;;;5007548;28;20371;-57
2021/11/18 11:55:50;;;;;;;90.93;27.63;;;15.90;70.60;;;;;;4997258;28;20082;-60
2021/11/18 11:58:20;;;;;;;101.65;27.92;;;15.80;69.70;;;;;;4987191;28;20118;-58
2021/11/18 12:00:54;;;;;;;89.28;26.13;;;15.80;69.50;;;;;;5071991;28;20080;-60
2021/11/18 12:03:48;;;;;;;75.03;25.95;;;15.80;69.60;;;;;;5069936;28;20077;-58
2021/11/18 12:06:26;;;;;;;80.13;24.08;;;15.80;70.00;;;;;;5085136;28;20104;-61
2021/11/18 12:09:11;;;;;;;73.28;23.65;;;15.70;69.60;;;;;;5085453;28;20083;-58
2021/11/18 12:11:57;;;;;;;76.80;23.77;;;15.80;69.40;;;;;;5085103;28;20529;-59
2021/11/18 12:14:32;;;;;;;83.15;24.17;;;15.80;69.40;;;;;;5102173;28;20208;-61
2021/11/18 12:17:19;;;;;;;80.10;22.83;;;15.80;69.50;;;;;;5085261;28;20076;-60
2021/11/18 12:19:52;;;;;;;75.50;22.57;;;15.80;68.50;;;;;;5100882;28;20068;-62
2021/11/18 12:23:00;;;;;;;80.22;22.13;;;15.70;67.90;;;;;;5084613;28;20077;-62
2021/11/18 12:25:39;;;;;;;61.13;20.75;;;15.70;67.60;;;;;;5100948;28;20078;-60
2021/11/18 12:28:31;;;;;;;58.72;18.25;;;15.60;66.70;;;;;;5082349;28;20536;-59
2021/11/18 12:30:57;;;;;;;56.92;16.67;;;15.60;66.10;;;;;;5083874;28;20091;-59
2021/11/18 12:33:23;;;;;;;62.50;17.02;;;15.60;64.00;;;;;;5082980;28;20427;-59
2021/11/18 12:36:05;;;;;;;60.05;16.67;;;15.60;63.70;;;;;;5103774;28;20092;-59
2021/11/18 12:38:55;;;;;;;53.25;15.55;;;15.60;62.40;;;;;;5101439;28;20088;-59
2021/11/18 12:41:47;;;;;;;51.67;14.30;;;15.60;63.10;;;;;;5083978;28;20095;-59
2021/11/18 12:44:53;;;;;;;39.63;11.40;;;15.50;61.10;;;;;;5083290;28;20079;-58
2021/11/18 12:47:39;;;;;;;30.20;10.38;;;15.50;59.80;;;;;;5084569;28;20540;-61
2021/11/18 12:50:31;;;;;;;27.70;8.88;;;15.50;57.50;;;;;;5082523;28;20092;-61
2021/11/18 12:53:17;;;;;;;27.27;9.18;;;15.50;56.60;;;;;;5082746;28;20092;-59
2021/11/18 12:56:13;;;;;;;18.70;8.52;;;15.50;56.90;;;;;;5086947;28;20064;-59